sensor_id;sensor_type;location;lat;lon;timestamp;P1;durP1;ratioP1;P2;durP2;ratioP2
49139;SDS011;34959;49.310;8.646;2024-01-16T00:01:24;1.88;;;1.10;;
49139;SDS011;34959;49.310;8.646;2024-01-16T00:03:50;3.78;;;0.98;;
49139;SDS011;34959;49.310;8.646;2024-01-16T00:06:15;2.65;;;1.15;;
49139;SDS011;34959;49.310;8.646;2024-01-16T00:08:40;1.23;;;0.80;;
49139;SDS011;34959;49.310;8.646;2024-01-16T00:11:06;2.15;;;1.15;;
49139;SDS011;34959;49.310;8.646;2024-01-16T00:13:32;4.45;;;1.30;;
49139;SDS011;34959;49.310;8.646;2024-01-16T00:15:58;1.85;;;1.20;;
49139;SDS011;34959;49.310;8.646;2024-01-16T00:18:23;1.88;;;1.02;;
49139;SDS011;34959;49.310;8.646;2024-01-16T00:20:48;1.02;;;0.80;;
49139;SDS011;34959;49.310;8.646;2024-01-16T00:23:14;3.25;;;1.20;;
49139;SDS011;34959;49.310;8.646;2024-01-16T00:25:39;1.95;;;1.15;;
49139;SDS011;34959;49.310;8.646;2024-01-16T00:28:05;4.03;;;1.20;;
49139;SDS011;34959;49.310;8.646;2024-01-16T00:30:30;2.80;;;0.90;;
49139;SDS011;34959;49.310;8.646;2024-01-16T00:32:56;2.15;;;1.00;;
49139;SDS011;34959;49.310;8.646;2024-01-16T00:35:21;2.42;;;1.25;;
49139;SDS011;34959;49.310;8.646;2024-01-16T00:37:47;1.67;;;0.90;;
49139;SDS011;34959;49.310;8.646;2024-01-16T00:40:12;1.63;;;0.80;;
49139;SDS011;34959;49.310;8.646;2024-01-16T00:42:38;2.33;;;1.17;;
49139;SDS011;34959;49.310;8.646;2024-01-16T00:45:03;2.22;;;0.98;;
49139;SDS011;34959;49.310;8.646;2024-01-16T00:47:29;2.58;;;1.17;;
49139;SDS011;34959;49.310;8.646;2024-01-16T00:49:55;4.03;;;1.05;;
49139;SDS011;34959;49.310;8.646;2024-01-16T00:52:20;2.08;;;1.08;;
49139;SDS011;34959;49.310;8.646;2024-01-16T00:54:46;3.67;;;0.98;;
49139;SDS011;34959;49.310;8.646;2024-01-16T00:57:11;3.45;;;1.63;;
49139;SDS011;34959;49.310;8.646;2024-01-16T00:59:36;4.70;;;1.27;;
49139;SDS011;34959;49.310;8.646;2024-01-16T01:02:02;7.72;;;1.48;;
49139;SDS011;34959;49.310;8.646;2024-01-16T01:04:28;5.72;;;1.20;;
49139;SDS011;34959;49.310;8.646;2024-01-16T01:06:54;2.70;;;1.08;;
49139;SDS011;34959;49.310;8.646;2024-01-16T01:09:19;6.65;;;1.13;;
49139;SDS011;34959;49.310;8.646;2024-01-16T01:11:45;4.38;;;1.20;;
49139;SDS011;34959;49.310;8.646;2024-01-16T01:14:10;2.45;;;1.20;;
49139;SDS011;34959;49.310;8.646;2024-01-16T01:16:36;4.18;;;1.20;;
49139;SDS011;34959;49.310;8.646;2024-01-16T01:19:01;2.97;;;1.10;;
49139;SDS011;34959;49.310;8.646;2024-01-16T01:21:27;6.80;;;1.13;;
49139;SDS011;34959;49.310;8.646;2024-01-16T01:23:52;2.45;;;0.82;;
49139;SDS011;34959;49.310;8.646;2024-01-16T01:26:17;5.93;;;1.10;;
49139;SDS011;34959;49.310;8.646;2024-01-16T01:28:44;7.82;;;1.35;;
49139;SDS011;34959;49.310;8.646;2024-01-16T01:31:12;4.15;;;1.30;;
49139;SDS011;34959;49.310;8.646;2024-01-16T01:33:38;3.90;;;1.30;;
49139;SDS011;34959;49.310;8.646;2024-01-16T01:36:07;2.15;;;1.10;;
49139;SDS011;34959;49.310;8.646;2024-01-16T01:38:33;5.80;;;1.08;;
49139;SDS011;34959;49.310;8.646;2024-01-16T01:40:58;2.97;;;1.08;;
49139;SDS011;34959;49.310;8.646;2024-01-16T01:43:24;1.80;;;1.13;;
49139;SDS011;34959;49.310;8.646;2024-01-16T01:46:35;4.03;;;1.10;;
49139;SDS011;34959;49.310;8.646;2024-01-16T01:48:40;2.47;;;1.17;;
49139;SDS011;34959;49.310;8.646;2024-01-16T01:51:06;2.25;;;1.00;;
49139;SDS011;34959;49.310;8.646;2024-01-16T01:53:33;3.25;;;1.20;;
49139;SDS011;34959;49.310;8.646;2024-01-16T01:55:59;1.75;;;0.90;;
49139;SDS011;34959;49.310;8.646;2024-01-16T01:58:30;2.43;;;1.00;;
49139;SDS011;34959;49.310;8.646;2024-01-16T02:00:57;2.72;;;1.38;;
49139;SDS011;34959;49.310;8.646;2024-01-16T02:03:23;3.75;;;1.10;;
49139;SDS011;34959;49.310;8.646;2024-01-16T02:05:50;1.45;;;0.95;;
49139;SDS011;34959;49.310;8.646;2024-01-16T02:08:16;4.90;;;1.20;;
49139;SDS011;34959;49.310;8.646;2024-01-16T02:10:41;2.38;;;1.10;;
49139;SDS011;34959;49.310;8.646;2024-01-16T02:13:07;3.10;;;1.13;;
49139;SDS011;34959;49.310;8.646;2024-01-16T02:15:33;1.77;;;1.00;;
49139;SDS011;34959;49.310;8.646;2024-01-16T02:17:58;1.60;;;0.90;;
49139;SDS011;34959;49.310;8.646;2024-01-16T02:20:24;4.95;;;1.13;;
49139;SDS011;34959;49.310;8.646;2024-01-16T02:22:49;4.07;;;1.02;;
49139;SDS011;34959;49.310;8.646;2024-01-16T02:25:17;3.17;;;0.90;;
49139;SDS011;34959;49.310;8.646;2024-01-16T02:27:43;3.30;;;1.05;;
49139;SDS011;34959;49.310;8.646;2024-01-16T02:30:08;3.80;;;1.02;;
49139;SDS011;34959;49.310;8.646;2024-01-16T02:32:33;2.83;;;1.13;;
49139;SDS011;34959;49.310;8.646;2024-01-16T02:34:59;3.13;;;0.98;;
49139;SDS011;34959;49.310;8.646;2024-01-16T02:37:24;2.33;;;1.20;;
49139;SDS011;34959;49.310;8.646;2024-01-16T02:39:50;2.20;;;1.20;;
49139;SDS011;34959;49.310;8.646;2024-01-16T02:42:16;3.67;;;1.25;;
49139;SDS011;34959;49.310;8.646;2024-01-16T02:44:41;1.25;;;0.73;;
49139;SDS011;34959;49.310;8.646;2024-01-16T02:47:06;2.35;;;1.10;;
49139;SDS011;34959;49.310;8.646;2024-01-16T02:49:32;1.35;;;1.02;;
49139;SDS011;34959;49.310;8.646;2024-01-16T02:51:58;2.95;;;0.88;;
49139;SDS011;34959;49.310;8.646;2024-01-16T02:54:23;3.45;;;1.02;;
49139;SDS011;34959;49.310;8.646;2024-01-16T02:56:49;4.70;;;1.00;;
49139;SDS011;34959;49.310;8.646;2024-01-16T02:59:14;1.52;;;0.88;;
49139;SDS011;34959;49.310;8.646;2024-01-16T03:01:40;2.65;;;1.33;;
49139;SDS011;34959;49.310;8.646;2024-01-16T03:04:06;1.58;;;1.00;;
49139;SDS011;34959;49.310;8.646;2024-01-16T03:06:31;1.55;;;0.85;;
49139;SDS011;34959;49.310;8.646;2024-01-16T03:08:56;1.85;;;1.15;;
49139;SDS011;34959;49.310;8.646;2024-01-16T03:11:22;1.70;;;0.98;;
49139;SDS011;34959;49.310;8.646;2024-01-16T03:13:47;2.05;;;1.10;;
49139;SDS011;34959;49.310;8.646;2024-01-16T03:16:14;1.90;;;1.20;;
49139;SDS011;34959;49.310;8.646;2024-01-16T03:18:40;3.47;;;1.15;;
49139;SDS011;34959;49.310;8.646;2024-01-16T03:21:06;2.72;;;0.85;;
49139;SDS011;34959;49.310;8.646;2024-01-16T03:23:32;2.40;;;0.90;;
49139;SDS011;34959;49.310;8.646;2024-01-16T03:25:58;1.30;;;0.82;;
49139;SDS011;34959;49.310;8.646;2024-01-16T03:28:23;2.35;;;0.82;;
49139;SDS011;34959;49.310;8.646;2024-01-16T03:30:48;2.78;;;0.95;;
49139;SDS011;34959;49.310;8.646;2024-01-16T03:33:14;1.50;;;1.00;;
49139;SDS011;34959;49.310;8.646;2024-01-16T03:35:39;2.22;;;1.00;;
49139;SDS011;34959;49.310;8.646;2024-01-16T03:38:05;2.15;;;0.90;;
49139;SDS011;34959;49.310;8.646;2024-01-16T03:40:30;2.20;;;1.00;;
49139;SDS011;34959;49.310;8.646;2024-01-16T03:43:02;2.10;;;0.90;;
49139;SDS011;34959;49.310;8.646;2024-01-16T03:45:30;2.20;;;1.30;;
49139;SDS011;34959;49.310;8.646;2024-01-16T03:47:55;3.08;;;1.20;;
49139;SDS011;34959;49.310;8.646;2024-01-16T03:50:20;1.30;;;0.90;;
49139;SDS011;34959;49.310;8.646;2024-01-16T03:52:46;4.35;;;1.10;;
49139;SDS011;34959;49.310;8.646;2024-01-16T03:55:11;2.47;;;1.10;;
49139;SDS011;34959;49.310;8.646;2024-01-16T03:57:37;6.55;;;1.23;;
49139;SDS011;34959;49.310;8.646;2024-01-16T04:00:05;3.35;;;1.20;;
49139;SDS011;34959;49.310;8.646;2024-01-16T04:02:31;2.30;;;0.98;;
49139;SDS011;34959;49.310;8.646;2024-01-16T04:04:57;1.15;;;0.85;;
49139;SDS011;34959;49.310;8.646;2024-01-16T04:07:22;3.00;;;0.88;;
49139;SDS011;34959;49.310;8.646;2024-01-16T04:09:48;2.45;;;0.80;;
49139;SDS011;34959;49.310;8.646;2024-01-16T04:12:14;1.67;;;0.98;;
49139;SDS011;34959;49.310;8.646;2024-01-16T04:14:39;1.88;;;1.05;;
49139;SDS011;34959;49.310;8.646;2024-01-16T04:17:05;2.70;;;1.10;;
49139;SDS011;34959;49.310;8.646;2024-01-16T04:19:30;1.73;;;1.00;;
49139;SDS011;34959;49.310;8.646;2024-01-16T04:21:58;3.00;;;1.10;;
49139;SDS011;34959;49.310;8.646;2024-01-16T04:24:24;3.97;;;1.02;;
49139;SDS011;34959;49.310;8.646;2024-01-16T04:26:50;2.15;;;1.23;;
49139;SDS011;34959;49.310;8.646;2024-01-16T04:29:15;2.83;;;0.82;;
49139;SDS011;34959;49.310;8.646;2024-01-16T04:31:41;6.18;;;1.70;;
49139;SDS011;34959;49.310;8.646;2024-01-16T04:34:06;1.65;;;1.00;;
49139;SDS011;34959;49.310;8.646;2024-01-16T04:36:32;1.75;;;1.00;;
49139;SDS011;34959;49.310;8.646;2024-01-16T04:38:57;2.53;;;1.00;;
49139;SDS011;34959;49.310;8.646;2024-01-16T04:41:23;3.15;;;1.00;;
49139;SDS011;34959;49.310;8.646;2024-01-16T04:43:48;1.55;;;0.90;;
49139;SDS011;34959;49.310;8.646;2024-01-16T04:46:15;2.50;;;1.10;;
49139;SDS011;34959;49.310;8.646;2024-01-16T04:48:41;2.40;;;1.00;;
49139;SDS011;34959;49.310;8.646;2024-01-16T04:51:07;1.63;;;0.80;;
49139;SDS011;34959;49.310;8.646;2024-01-16T04:53:32;2.75;;;1.15;;
49139;SDS011;34959;49.310;8.646;2024-01-16T04:55:58;4.80;;;1.00;;
49139;SDS011;34959;49.310;8.646;2024-01-16T04:58:24;1.40;;;0.73;;
49139;SDS011;34959;49.310;8.646;2024-01-16T05:00:49;1.80;;;1.10;;
49139;SDS011;34959;49.310;8.646;2024-01-16T05:03:14;2.20;;;1.00;;
49139;SDS011;34959;49.310;8.646;2024-01-16T05:05:40;1.92;;;1.10;;
49139;SDS011;34959;49.310;8.646;2024-01-16T05:08:06;2.42;;;0.93;;
49139;SDS011;34959;49.310;8.646;2024-01-16T05:10:31;1.40;;;0.90;;
49139;SDS011;34959;49.310;8.646;2024-01-16T05:12:56;1.52;;;1.05;;
49139;SDS011;34959;49.310;8.646;2024-01-16T05:15:22;1.80;;;1.13;;
49139;SDS011;34959;49.310;8.646;2024-01-16T05:17:47;3.53;;;0.93;;
49139;SDS011;34959;49.310;8.646;2024-01-16T05:20:13;2.80;;;1.05;;
49139;SDS011;34959;49.310;8.646;2024-01-16T05:22:38;2.15;;;1.10;;
49139;SDS011;34959;49.310;8.646;2024-01-16T05:25:04;1.45;;;0.90;;
49139;SDS011;34959;49.310;8.646;2024-01-16T05:27:32;3.25;;;0.90;;
49139;SDS011;34959;49.310;8.646;2024-01-16T05:29:58;2.88;;;1.08;;
49139;SDS011;34959;49.310;8.646;2024-01-16T05:32:23;3.90;;;1.70;;
49139;SDS011;34959;49.310;8.646;2024-01-16T05:34:48;3.05;;;0.77;;
49139;SDS011;34959;49.310;8.646;2024-01-16T05:37:14;1.95;;;1.00;;
49139;SDS011;34959;49.310;8.646;2024-01-16T05:39:39;1.45;;;0.90;;
49139;SDS011;34959;49.310;8.646;2024-01-16T05:42:05;2.20;;;1.00;;
49139;SDS011;34959;49.310;8.646;2024-01-16T05:44:31;2.50;;;0.90;;
49139;SDS011;34959;49.310;8.646;2024-01-16T05:46:56;1.38;;;1.00;;
49139;SDS011;34959;49.310;8.646;2024-01-16T05:49:22;3.45;;;1.10;;
49139;SDS011;34959;49.310;8.646;2024-01-16T05:51:47;2.75;;;0.98;;
49139;SDS011;34959;49.310;8.646;2024-01-16T05:54:12;2.85;;;1.00;;
49139;SDS011;34959;49.310;8.646;2024-01-16T05:56:40;4.40;;;0.88;;
49139;SDS011;34959;49.310;8.646;2024-01-16T05:59:06;2.13;;;0.80;;
49139;SDS011;34959;49.310;8.646;2024-01-16T06:01:32;2.30;;;1.10;;
49139;SDS011;34959;49.310;8.646;2024-01-16T06:03:58;2.05;;;1.00;;
49139;SDS011;34959;49.310;8.646;2024-01-16T06:06:25;5.05;;;1.10;;
49139;SDS011;34959;49.310;8.646;2024-01-16T06:08:50;1.70;;;1.00;;
49139;SDS011;34959;49.310;8.646;2024-01-16T06:11:15;2.90;;;1.00;;
49139;SDS011;34959;49.310;8.646;2024-01-16T06:13:41;2.28;;;1.00;;
49139;SDS011;34959;49.310;8.646;2024-01-16T06:16:06;6.28;;;1.17;;
49139;SDS011;34959;49.310;8.646;2024-01-16T06:18:35;2.63;;;1.15;;
49139;SDS011;34959;49.310;8.646;2024-01-16T06:21:01;1.73;;;1.05;;
49139;SDS011;34959;49.310;8.646;2024-01-16T06:23:26;2.17;;;1.13;;
49139;SDS011;34959;49.310;8.646;2024-01-16T06:25:52;2.20;;;1.02;;
49139;SDS011;34959;49.310;8.646;2024-01-16T06:28:17;2.42;;;1.17;;
49139;SDS011;34959;49.310;8.646;2024-01-16T06:30:43;2.15;;;0.98;;
49139;SDS011;34959;49.310;8.646;2024-01-16T06:33:08;3.08;;;1.45;;
49139;SDS011;34959;49.310;8.646;2024-01-16T06:35:33;2.45;;;1.05;;
49139;SDS011;34959;49.310;8.646;2024-01-16T06:37:59;3.15;;;0.95;;
49139;SDS011;34959;49.310;8.646;2024-01-16T06:40:24;2.88;;;1.08;;
49139;SDS011;34959;49.310;8.646;2024-01-16T06:42:49;1.77;;;1.20;;
49139;SDS011;34959;49.310;8.646;2024-01-16T06:45:15;3.72;;;1.30;;
49139;SDS011;34959;49.310;8.646;2024-01-16T06:47:41;9.00;;;1.25;;
49139;SDS011;34959;49.310;8.646;2024-01-16T06:50:07;3.55;;;1.20;;
49139;SDS011;34959;49.310;8.646;2024-01-16T06:52:33;3.03;;;1.30;;
49139;SDS011;34959;49.310;8.646;2024-01-16T06:54:58;3.70;;;1.30;;
49139;SDS011;34959;49.310;8.646;2024-01-16T06:57:24;6.53;;;1.27;;
49139;SDS011;34959;49.310;8.646;2024-01-16T06:59:49;2.38;;;1.10;;
49139;SDS011;34959;49.310;8.646;2024-01-16T07:02:14;3.42;;;1.20;;
49139;SDS011;34959;49.310;8.646;2024-01-16T07:04:40;3.00;;;1.40;;
49139;SDS011;34959;49.310;8.646;2024-01-16T07:07:05;2.90;;;1.25;;
49139;SDS011;34959;49.310;8.646;2024-01-16T07:09:31;16.05;;;1.65;;
49139;SDS011;34959;49.310;8.646;2024-01-16T07:11:56;2.25;;;1.20;;
49139;SDS011;34959;49.310;8.646;2024-01-16T07:14:24;2.20;;;1.15;;
49139;SDS011;34959;49.310;8.646;2024-01-16T07:16:49;2.20;;;1.10;;
49139;SDS011;34959;49.310;8.646;2024-01-16T07:19:15;3.35;;;1.50;;
49139;SDS011;34959;49.310;8.646;2024-01-16T07:21:40;5.18;;;1.52;;
49139;SDS011;34959;49.310;8.646;2024-01-16T07:24:05;4.28;;;1.17;;
49139;SDS011;34959;49.310;8.646;2024-01-16T07:26:31;1.95;;;1.30;;
49139;SDS011;34959;49.310;8.646;2024-01-16T07:28:56;6.53;;;1.45;;
49139;SDS011;34959;49.310;8.646;2024-01-16T07:31:22;3.85;;;1.50;;
49139;SDS011;34959;49.310;8.646;2024-01-16T07:33:48;4.13;;;1.70;;
49139;SDS011;34959;49.310;8.646;2024-01-16T07:36:13;3.95;;;1.20;;
49139;SDS011;34959;49.310;8.646;2024-01-16T07:38:39;5.88;;;1.50;;
49139;SDS011;34959;49.310;8.646;2024-01-16T07:41:04;7.07;;;1.88;;
49139;SDS011;34959;49.310;8.646;2024-01-16T07:43:30;4.07;;;1.40;;
49139;SDS011;34959;49.310;8.646;2024-01-16T07:45:56;6.75;;;1.52;;
49139;SDS011;34959;49.310;8.646;2024-01-16T07:48:21;2.38;;;1.50;;
49139;SDS011;34959;49.310;8.646;2024-01-16T07:50:48;4.45;;;1.40;;
49139;SDS011;34959;49.310;8.646;2024-01-16T07:53:13;4.05;;;1.60;;
49139;SDS011;34959;49.310;8.646;2024-01-16T07:55:40;8.80;;;1.20;;
49139;SDS011;34959;49.310;8.646;2024-01-16T07:58:06;3.45;;;1.27;;
49139;SDS011;34959;49.310;8.646;2024-01-16T08:00:31;5.03;;;1.25;;
49139;SDS011;34959;49.310;8.646;2024-01-16T08:02:56;2.25;;;1.45;;
49139;SDS011;34959;49.310;8.646;2024-01-16T08:05:22;2.92;;;1.30;;
49139;SDS011;34959;49.310;8.646;2024-01-16T08:07:52;3.53;;;1.33;;
49139;SDS011;34959;49.310;8.646;2024-01-16T08:10:18;3.33;;;1.20;;
49139;SDS011;34959;49.310;8.646;2024-01-16T08:12:44;3.38;;;1.50;;
49139;SDS011;34959;49.310;8.646;2024-01-16T08:15:09;2.92;;;1.30;;
49139;SDS011;34959;49.310;8.646;2024-01-16T08:17:35;4.10;;;1.20;;
49139;SDS011;34959;49.310;8.646;2024-01-16T08:20:01;2.30;;;1.20;;
49139;SDS011;34959;49.310;8.646;2024-01-16T08:22:26;2.97;;;1.30;;
49139;SDS011;34959;49.310;8.646;2024-01-16T08:24:55;2.63;;;1.63;;
49139;SDS011;34959;49.310;8.646;2024-01-16T08:27:20;2.13;;;1.38;;
49139;SDS011;34959;49.310;8.646;2024-01-16T08:29:45;2.47;;;1.40;;
49139;SDS011;34959;49.310;8.646;2024-01-16T08:32:13;3.03;;;1.40;;
49139;SDS011;34959;49.310;8.646;2024-01-16T08:34:38;2.40;;;1.23;;
49139;SDS011;34959;49.310;8.646;2024-01-16T08:37:04;2.13;;;1.20;;
49139;SDS011;34959;49.310;8.646;2024-01-16T08:39:29;2.47;;;1.40;;
49139;SDS011;34959;49.310;8.646;2024-01-16T08:41:58;3.00;;;1.40;;
49139;SDS011;34959;49.310;8.646;2024-01-16T08:44:23;3.75;;;1.60;;
49139;SDS011;34959;49.310;8.646;2024-01-16T08:46:49;3.20;;;1.67;;
49139;SDS011;34959;49.310;8.646;2024-01-16T08:49:14;3.10;;;1.80;;
49139;SDS011;34959;49.310;8.646;2024-01-16T08:51:39;5.03;;;1.70;;
49139;SDS011;34959;49.310;8.646;2024-01-16T08:54:06;2.20;;;1.42;;
49139;SDS011;34959;49.310;8.646;2024-01-16T08:56:32;2.88;;;1.40;;
49139;SDS011;34959;49.310;8.646;2024-01-16T08:58:57;2.83;;;1.50;;
49139;SDS011;34959;49.310;8.646;2024-01-16T09:01:22;4.03;;;1.63;;
49139;SDS011;34959;49.310;8.646;2024-01-16T09:03:48;4.22;;;1.77;;
49139;SDS011;34959;49.310;8.646;2024-01-16T09:06:13;2.42;;;1.35;;
49139;SDS011;34959;49.310;8.646;2024-01-16T09:08:39;5.65;;;1.60;;
49139;SDS011;34959;49.310;8.646;2024-01-16T09:11:04;2.60;;;1.77;;
49139;SDS011;34959;49.310;8.646;2024-01-16T09:13:30;2.42;;;1.83;;
49139;SDS011;34959;49.310;8.646;2024-01-16T09:15:55;3.90;;;1.63;;
49139;SDS011;34959;49.310;8.646;2024-01-16T09:18:20;4.05;;;1.80;;
49139;SDS011;34959;49.310;8.646;2024-01-16T09:20:46;3.17;;;1.80;;
49139;SDS011;34959;49.310;8.646;2024-01-16T09:23:11;3.58;;;1.60;;
49139;SDS011;34959;49.310;8.646;2024-01-16T09:25:37;2.15;;;1.40;;
49139;SDS011;34959;49.310;8.646;2024-01-16T09:28:03;3.58;;;1.65;;
49139;SDS011;34959;49.310;8.646;2024-01-16T09:30:28;3.10;;;1.70;;
49139;SDS011;34959;49.310;8.646;2024-01-16T09:32:54;3.13;;;1.75;;
49139;SDS011;34959;49.310;8.646;2024-01-16T09:35:19;4.18;;;1.80;;
49139;SDS011;34959;49.310;8.646;2024-01-16T09:37:45;2.35;;;1.40;;
49139;SDS011;34959;49.310;8.646;2024-01-16T09:40:10;2.58;;;1.40;;
49139;SDS011;34959;49.310;8.646;2024-01-16T09:42:36;2.75;;;1.70;;
49139;SDS011;34959;49.310;8.646;2024-01-16T09:45:01;3.10;;;1.50;;
49139;SDS011;34959;49.310;8.646;2024-01-16T09:47:28;2.72;;;1.92;;
49139;SDS011;34959;49.310;8.646;2024-01-16T09:49:56;2.00;;;1.38;;
49139;SDS011;34959;49.310;8.646;2024-01-16T09:52:22;2.35;;;1.40;;
49139;SDS011;34959;49.310;8.646;2024-01-16T09:54:48;2.63;;;1.48;;
49139;SDS011;34959;49.310;8.646;2024-01-16T09:57:13;3.58;;;1.80;;
49139;SDS011;34959;49.310;8.646;2024-01-16T09:59:40;3.85;;;1.65;;
49139;SDS011;34959;49.310;8.646;2024-01-16T10:02:07;4.80;;;1.63;;
49139;SDS011;34959;49.310;8.646;2024-01-16T10:04:34;2.45;;;1.70;;
49139;SDS011;34959;49.310;8.646;2024-01-16T10:06:59;4.90;;;1.90;;
49139;SDS011;34959;49.310;8.646;2024-01-16T10:09:26;1.95;;;1.50;;
49139;SDS011;34959;49.310;8.646;2024-01-16T10:11:52;2.13;;;1.52;;
49139;SDS011;34959;49.310;8.646;2024-01-16T10:14:18;12.98;;;8.10;;
49139;SDS011;34959;49.310;8.646;2024-01-16T10:16:59;11.23;;;7.65;;
49139;SDS011;34959;49.310;8.646;2024-01-16T10:19:35;11.27;;;7.93;;
49139;SDS011;34959;49.310;8.646;2024-01-16T10:22:12;14.90;;;7.30;;
49139;SDS011;34959;49.310;8.646;2024-01-16T10:24:38;9.20;;;6.10;;
49139;SDS011;34959;49.310;8.646;2024-01-16T10:27:04;9.48;;;5.65;;
49139;SDS011;34959;49.310;8.646;2024-01-16T10:29:29;7.47;;;5.25;;
49139;SDS011;34959;49.310;8.646;2024-01-16T10:31:56;7.90;;;4.95;;
49139;SDS011;34959;49.310;8.646;2024-01-16T10:34:22;8.88;;;5.07;;
49139;SDS011;34959;49.310;8.646;2024-01-16T10:36:49;8.95;;;4.82;;
49139;SDS011;34959;49.310;8.646;2024-01-16T10:39:16;8.40;;;4.82;;
49139;SDS011;34959;49.310;8.646;2024-01-16T10:41:41;8.38;;;4.95;;
49139;SDS011;34959;49.310;8.646;2024-01-16T10:44:07;6.80;;;4.45;;
49139;SDS011;34959;49.310;8.646;2024-01-16T10:46:33;6.13;;;4.10;;
49139;SDS011;34959;49.310;8.646;2024-01-16T10:49:00;6.93;;;4.57;;
49139;SDS011;34959;49.310;8.646;2024-01-16T10:51:29;7.68;;;4.55;;
49139;SDS011;34959;49.310;8.646;2024-01-16T10:53:59;7.03;;;4.00;;
49139;SDS011;34959;49.310;8.646;2024-01-16T10:56:29;12.90;;;4.28;;
49139;SDS011;34959;49.310;8.646;2024-01-16T11:01:45;5.65;;;3.75;;
49139;SDS011;34959;49.310;8.646;2024-01-16T11:04:13;18.40;;;3.92;;
49139;SDS011;34959;49.310;8.646;2024-01-16T11:06:40;5.93;;;3.53;;
49139;SDS011;34959;49.310;8.646;2024-01-16T11:09:06;8.52;;;4.20;;
49139;SDS011;34959;49.310;8.646;2024-01-16T11:11:32;6.38;;;3.50;;
49139;SDS011;34959;49.310;8.646;2024-01-16T11:13:59;9.90;;;3.78;;
49139;SDS011;34959;49.310;8.646;2024-01-16T11:16:25;5.43;;;3.22;;
49139;SDS011;34959;49.310;8.646;2024-01-16T11:18:50;5.72;;;3.30;;
49139;SDS011;34959;49.310;8.646;2024-01-16T11:21:16;5.80;;;3.50;;
49139;SDS011;34959;49.310;8.646;2024-01-16T11:23:41;6.25;;;3.15;;
49139;SDS011;34959;49.310;8.646;2024-01-16T11:28:58;8.77;;;3.20;;
49139;SDS011;34959;49.310;8.646;2024-01-16T11:33:52;5.70;;;3.30;;
49139;SDS011;34959;49.310;8.646;2024-01-16T11:36:42;4.95;;;2.97;;
49139;SDS011;34959;49.310;8.646;2024-01-16T11:39:23;4.40;;;3.08;;
49139;SDS011;34959;49.310;8.646;2024-01-16T11:41:55;6.32;;;3.10;;
49139;SDS011;34959;49.310;8.646;2024-01-16T11:44:40;4.90;;;3.08;;
49139;SDS011;34959;49.310;8.646;2024-01-16T11:47:07;5.63;;;2.80;;
49139;SDS011;34959;49.310;8.646;2024-01-16T11:49:34;6.03;;;3.25;;
49139;SDS011;34959;49.310;8.646;2024-01-16T11:52:00;4.40;;;2.90;;
49139;SDS011;34959;49.310;8.646;2024-01-16T11:54:26;3.83;;;2.67;;
49139;SDS011;34959;49.310;8.646;2024-01-16T12:02:37;5.57;;;2.92;;
49139;SDS011;34959;49.310;8.646;2024-01-16T12:05:10;4.88;;;3.00;;
49139;SDS011;34959;49.310;8.646;2024-01-16T12:07:42;5.88;;;2.50;;
49139;SDS011;34959;49.310;8.646;2024-01-16T12:10:12;4.53;;;2.80;;
49139;SDS011;34959;49.310;8.646;2024-01-16T12:12:37;3.88;;;2.75;;
49139;SDS011;34959;49.310;8.646;2024-01-16T12:15:03;3.53;;;2.58;;
49139;SDS011;34959;49.310;8.646;2024-01-16T12:17:29;4.13;;;2.58;;
49139;SDS011;34959;49.310;8.646;2024-01-16T12:19:54;5.05;;;2.67;;
49139;SDS011;34959;49.310;8.646;2024-01-16T12:22:20;4.95;;;2.75;;
49139;SDS011;34959;49.310;8.646;2024-01-16T12:24:47;5.70;;;2.95;;
49139;SDS011;34959;49.310;8.646;2024-01-16T12:27:13;4.60;;;2.70;;
49139;SDS011;34959;49.310;8.646;2024-01-16T12:29:39;3.90;;;2.50;;
49139;SDS011;34959;49.310;8.646;2024-01-16T12:32:09;2.97;;;2.10;;
49139;SDS011;34959;49.310;8.646;2024-01-16T12:34:35;3.80;;;2.22;;
49139;SDS011;34959;49.310;8.646;2024-01-16T12:37:10;4.10;;;2.42;;
49139;SDS011;34959;49.310;8.646;2024-01-16T12:39:35;3.97;;;2.50;;
49139;SDS011;34959;49.310;8.646;2024-01-16T12:42:01;3.38;;;2.30;;
49139;SDS011;34959;49.310;8.646;2024-01-16T12:44:29;5.55;;;2.60;;
49139;SDS011;34959;49.310;8.646;2024-01-16T12:46:55;3.13;;;2.03;;
49139;SDS011;34959;49.310;8.646;2024-01-16T12:49:22;3.10;;;2.20;;
49139;SDS011;34959;49.310;8.646;2024-01-16T12:51:48;3.03;;;2.10;;
49139;SDS011;34959;49.310;8.646;2024-01-16T12:54:15;3.45;;;2.15;;
49139;SDS011;34959;49.310;8.646;2024-01-16T12:56:41;2.70;;;1.98;;
49139;SDS011;34959;49.310;8.646;2024-01-16T12:59:13;3.92;;;2.40;;
49139;SDS011;34959;49.310;8.646;2024-01-16T13:01:43;4.28;;;2.50;;
49139;SDS011;34959;49.310;8.646;2024-01-16T13:04:13;3.55;;;2.38;;
49139;SDS011;34959;49.310;8.646;2024-01-16T13:06:41;3.58;;;2.03;;
49139;SDS011;34959;49.310;8.646;2024-01-16T13:09:09;3.22;;;2.25;;
49139;SDS011;34959;49.310;8.646;2024-01-16T13:11:54;3.08;;;2.03;;
49139;SDS011;34959;49.310;8.646;2024-01-16T13:14:20;3.45;;;2.33;;
49139;SDS011;34959;49.310;8.646;2024-01-16T13:16:46;3.60;;;2.30;;
49139;SDS011;34959;49.310;8.646;2024-01-16T13:19:15;3.65;;;2.10;;
49139;SDS011;34959;49.310;8.646;2024-01-16T13:21:41;3.45;;;2.00;;
49139;SDS011;34959;49.310;8.646;2024-01-16T13:24:07;3.42;;;2.08;;
49139;SDS011;34959;49.310;8.646;2024-01-16T13:26:33;3.28;;;2.20;;
49139;SDS011;34959;49.310;8.646;2024-01-16T13:28:59;3.53;;;2.13;;
49139;SDS011;34959;49.310;8.646;2024-01-16T13:31:25;4.90;;;2.28;;
49139;SDS011;34959;49.310;8.646;2024-01-16T13:33:50;3.00;;;1.95;;
49139;SDS011;34959;49.310;8.646;2024-01-16T13:36:15;3.85;;;2.20;;
49139;SDS011;34959;49.310;8.646;2024-01-16T13:38:41;3.30;;;2.03;;
49139;SDS011;34959;49.310;8.646;2024-01-16T13:41:07;3.65;;;1.95;;
49139;SDS011;34959;49.310;8.646;2024-01-16T13:43:32;3.03;;;1.85;;
49139;SDS011;34959;49.310;8.646;2024-01-16T13:45:58;2.88;;;2.20;;
49139;SDS011;34959;49.310;8.646;2024-01-16T13:48:23;3.95;;;2.30;;
49139;SDS011;34959;49.310;8.646;2024-01-16T13:50:53;3.03;;;1.83;;
49139;SDS011;34959;49.310;8.646;2024-01-16T13:53:18;2.97;;;2.00;;
49139;SDS011;34959;49.310;8.646;2024-01-16T13:55:44;3.35;;;2.08;;
49139;SDS011;34959;49.310;8.646;2024-01-16T13:58:09;3.97;;;2.15;;
49139;SDS011;34959;49.310;8.646;2024-01-16T14:00:35;3.08;;;1.90;;
49139;SDS011;34959;49.310;8.646;2024-01-16T14:03:01;3.47;;;2.25;;
49139;SDS011;34959;49.310;8.646;2024-01-16T14:05:28;3.42;;;2.08;;
49139;SDS011;34959;49.310;8.646;2024-01-16T14:07:53;5.90;;;2.00;;
49139;SDS011;34959;49.310;8.646;2024-01-16T14:10:19;3.80;;;2.00;;
49139;SDS011;34959;49.310;8.646;2024-01-16T14:12:46;3.08;;;1.70;;
49139;SDS011;34959;49.310;8.646;2024-01-16T14:15:12;2.13;;;1.63;;
49139;SDS011;34959;49.310;8.646;2024-01-16T14:17:42;3.08;;;1.77;;
49139;SDS011;34959;49.310;8.646;2024-01-16T14:20:10;3.95;;;2.20;;
49139;SDS011;34959;49.310;8.646;2024-01-16T14:22:36;3.45;;;1.90;;
49139;SDS011;34959;49.310;8.646;2024-01-16T14:25:07;3.67;;;2.10;;
49139;SDS011;34959;49.310;8.646;2024-01-16T14:30:15;4.72;;;1.60;;
49139;SDS011;34959;49.310;8.646;2024-01-16T14:32:41;3.47;;;1.73;;
49139;SDS011;34959;49.310;8.646;2024-01-16T14:35:08;3.05;;;1.63;;
49139;SDS011;34959;49.310;8.646;2024-01-16T14:37:35;3.80;;;2.05;;
49139;SDS011;34959;49.310;8.646;2024-01-16T14:40:01;2.65;;;1.90;;
49139;SDS011;34959;49.310;8.646;2024-01-16T14:42:28;2.45;;;1.65;;
49139;SDS011;34959;49.310;8.646;2024-01-16T14:44:54;2.85;;;1.73;;
49139;SDS011;34959;49.310;8.646;2024-01-16T14:47:19;7.18;;;2.38;;
49139;SDS011;34959;49.310;8.646;2024-01-16T14:49:45;2.83;;;1.55;;
49139;SDS011;34959;49.310;8.646;2024-01-16T14:52:11;6.07;;;1.40;;
49139;SDS011;34959;49.310;8.646;2024-01-16T14:54:37;2.80;;;1.40;;
49139;SDS011;34959;49.310;8.646;2024-01-16T14:57:03;3.50;;;1.90;;
49139;SDS011;34959;49.310;8.646;2024-01-16T14:59:29;2.92;;;1.70;;